Nonna — SVA5415 — position and weather

sailwx.info

Track history (hours):
 
Tides and Currents Weather Stations Pressure Air Temp Water Temp Dewpoint Dewpoint Depression Visibility Wind Speed Wind Dir Waves Ship Positions

Nonna

Last reported at 2017-Nov-03 17:17 UTC. Time now 2017-Dec-16 05:31 UTC.
Position N 37°55' E 023°42'.
Warning: this ship's position is 42 days out of date.

Length 15 m.

Type: Sailing vessel. MMSI: 239813100.

Date/timePositionNaut miles runAvg speedWind from/ knotsBaromVisibWave heightAir tempDewpointWater temp
2017-Nov-03 17:17N 37°55' E 023°42'0 0.1
2017-Nov-03 16:56N 37°55' E 023°42'1 3.2
2017-Nov-03 16:30N 37°54' E 023°41'3 6.4
2017-Nov-03 16:00N 37°53' E 023°37'3 6.4
2017-Nov-03 15:30N 37°51' E 023°34'3 6.5
2017-Nov-03 15:00N 37°49' E 023°31'3 6.5
2017-Nov-03 14:30N 37°47' E 023°28'3 5.2
2017-Nov-03 13:59N 37°45' E 023°25'  
2017-Oct-30 15:18N 37°32' E 023°25'10 1.7
2017-Oct-30 09:19N 37°42' E 023°26'3 0.1
2017-Oct-29 10:15N 37°45' E 023°25'1 5.6
2017-Oct-29 10:00N 37°46' E 023°25'3 6.1
2017-Oct-29 09:30N 37°48' E 023°28'3 6.0
2017-Oct-29 09:00N 37°49' E 023°32'3 6.5
2017-Oct-29 08:30N 37°51' E 023°35'3 6.7
2017-Oct-29 08:00N 37°53' E 023°39'3 5.9
2017-Oct-29 07:30N 37°54' E 023°42'1 0.0
2017-Oct-28 09:06N 37°55' E 023°42'  
Track history (hours):
 
Tides and Currents Weather Stations Pressure Air Temp Water Temp Dewpoint Dewpoint Depression Visibility Wind Speed Wind Dir Waves Ship Positions

Nonna

Last reported at 2017-Nov-03 17:17 UTC. Time now 2017-Dec-16 05:31 UTC.
Position N 37°55' E 023°42'.
Warning: this ship's position is 42 days out of date.

Length 15 m.

Type: Sailing vessel. MMSI: 239813100.

Date/timePositionNaut miles runAvg speedWind from/ knotsBaromVisibWave heightAir tempDewpointWater temp
2017-Nov-03 17:17N 37°55' E 023°42'0 0.1
2017-Nov-03 16:56N 37°55' E 023°42'1 3.2
2017-Nov-03 16:30N 37°54' E 023°41'3 6.4
2017-Nov-03 16:00N 37°53' E 023°37'3 6.4
2017-Nov-03 15:30N 37°51' E 023°34'3 6.5
2017-Nov-03 15:00N 37°49' E 023°31'3 6.5
2017-Nov-03 14:30N 37°47' E 023°28'3 5.2
2017-Nov-03 13:59N 37°45' E 023°25'  
2017-Oct-30 15:18N 37°32' E 023°25'10 1.7
2017-Oct-30 09:19N 37°42' E 023°26'3 0.1
2017-Oct-29 10:15N 37°45' E 023°25'1 5.6
2017-Oct-29 10:00N 37°46' E 023°25'3 6.1
2017-Oct-29 09:30N 37°48' E 023°28'3 6.0
2017-Oct-29 09:00N 37°49' E 023°32'3 6.5
2017-Oct-29 08:30N 37°51' E 023°35'3 6.7
2017-Oct-29 08:00N 37°53' E 023°39'3 5.9
2017-Oct-29 07:30N 37°54' E 023°42'1 0.0
2017-Oct-28 09:06N 37°55' E 023°42'  

Dump ship's entire track history